Time;durP1;ratioP1;P1;durP2;ratioP2;P2;SDS_P1;SDS_P2;PMS_P1;PMS_P2;Temp;Humidity;BMP_temperature;BMP_pressure;BME280_temperature;BME280_humidity;BME280_pressure;Samples;Min_cycle;Max_cycle;Signal;HPM_P1;HPM_P2
2022/05/22 00:01:53;;;;;;;8.57;5.22;;;;;;;;;;5053149;28;20494;-28
2022/05/22 00:04:19;;;;;;;7.05;4.63;;;;;;;;;;5050927;28;20087;-29
2022/05/22 00:06:46;;;;;;;9.40;5.00;;;;;;;;;;5033039;28;20041;-29
2022/05/22 00:09:12;;;;;;;8.98;4.75;;;;;;;;;;5031926;28;20049;-28
2022/05/22 00:11:38;;;;;;;7.35;4.60;;;;;;;;;;5053573;28;20483;-28
2022/05/22 00:14:04;;;;;;;8.40;4.60;;;;;;;;;;5053248;28;20041;-29
2022/05/22 00:16:36;;;;;;;10.98;5.40;;;;;;;;;;5052435;28;20124;-30
2022/05/22 00:19:06;;;;;;;7.22;4.72;;;;;;;;;;5052584;28;20049;-29
2022/05/22 00:21:32;;;;;;;9.20;4.75;;;;;;;;;;5052407;28;20037;-29
2022/05/22 00:23:58;;;;;;;11.68;5.60;;;;;;;;;;5052147;28;20102;-28
2022/05/22 00:26:24;;;;;;;8.82;5.15;;;;;;;;;;5053373;28;20045;-29
2022/05/22 00:28:50;;;;;;;9.15;5.07;;;;;;;;;;5052805;28;20406;-29
2022/05/22 00:31:17;;;;;;;10.32;5.60;;;;;;;;;;5052203;28;20464;-29
2022/05/22 00:33:43;;;;;;;9.75;5.93;;;;;;;;;;5052356;28;20522;-29
2022/05/22 00:36:09;;;;;;;10.82;5.80;;;;;;;;;;5052761;28;20094;-30
2022/05/22 00:38:36;;;;;;;7.70;5.53;;;;;;;;;;5052670;28;20045;-29
2022/05/22 00:41:02;;;;;;;8.82;5.88;;;;;;;;;;5052557;28;20426;-28
2022/05/22 00:43:28;;;;;;;10.27;6.45;;;;;;;;;;5052362;28;20037;-30
2022/05/22 00:45:55;;;;;;;11.30;6.00;;;;;;;;;;5052741;28;20441;-28
2022/05/22 00:48:21;;;;;;;11.68;6.20;;;;;;;;;;5052430;28;20051;-28
2022/05/22 00:50:47;;;;;;;8.57;5.70;;;;;;;;;;5051291;28;20082;-29
2022/05/22 00:53:13;;;;;;;13.15;5.85;;;;;;;;;;5052329;28;20029;-29
2022/05/22 00:55:40;;;;;;;9.50;6.20;;;;;;;;;;5052280;28;20037;-29
2022/05/22 00:58:10;;;;;;;8.55;6.00;;;;;;;;;;5052657;28;20044;-29
2022/05/22 01:00:36;;;;;;;11.70;6.95;;;;;;;;;;5052046;28;20128;-31
2022/05/22 01:05:50;;;;;;;8.80;5.82;;;;;;;;;;5051208;28;20053;-28
2022/05/22 01:08:16;;;;;;;8.13;5.53;;;;;;;;;;5052188;28;20132;-29
2022/05/22 01:10:51;;;;;;;9.38;6.22;;;;;;;;;;5052385;28;20071;-27
2022/05/22 01:13:18;;;;;;;9.93;6.18;;;;;;;;;;5051870;28;20537;-28
2022/05/22 01:15:46;;;;;;;9.52;5.90;;;;;;;;;;5051461;28;20037;-29
2022/05/22 01:18:12;;;;;;;12.23;6.38;;;;;;;;;;5051447;28;20085;-29
2022/05/22 01:20:45;;;;;;;12.75;5.90;;;;;;;;;;5051954;28;20037;-28
2022/05/22 01:23:11;;;;;;;7.47;6.05;;;;;;;;;;5051161;28;20047;-28
2022/05/22 01:25:37;;;;;;;9.52;6.25;;;;;;;;;;5051627;28;20075;-29
2022/05/22 01:28:03;;;;;;;10.60;6.70;;;;;;;;;;5050730;28;20041;-29
2022/05/22 01:30:29;;;;;;;11.85;6.28;;;;;;;;;;5051663;28;20037;-29
2022/05/22 01:32:55;;;;;;;8.23;6.45;;;;;;;;;;5051730;28;20037;-32
2022/05/22 01:35:24;;;;;;;13.45;6.72;;;;;;;;;;5050614;28;20297;-29
2022/05/22 01:37:50;;;;;;;10.13;6.78;;;;;;;;;;5051911;28;20119;-29
2022/05/22 01:40:17;;;;;;;10.38;6.95;;;;;;;;;;5050797;28;20041;-28
2022/05/22 01:42:45;;;;;;;10.32;6.72;;;;;;;;;;5051580;28;20041;-29
2022/05/22 01:45:13;;;;;;;6.82;5.53;;;;;;;;;;5051836;28;20068;-28
2022/05/22 01:47:40;;;;;;;9.02;6.00;;;;;;;;;;5051250;28;20090;-28
2022/05/22 01:50:06;;;;;;;7.45;6.18;;;;;;;;;;5051608;28;20441;-30
2022/05/22 01:52:32;;;;;;;8.90;6.20;;;;;;;;;;5050559;28;20572;-29
2022/05/22 01:54:58;;;;;;;8.93;6.22;;;;;;;;;;5051680;28;20090;-29
2022/05/22 01:57:24;;;;;;;8.30;6.15;;;;;;;;;;5051219;28;20127;-29
2022/05/22 01:59:51;;;;;;;8.48;6.55;;;;;;;;;;5051022;28;20387;-28
2022/05/22 02:02:17;;;;;;;8.95;6.47;;;;;;;;;;5051570;28;20398;-31
2022/05/22 02:04:43;;;;;;;10.52;6.95;;;;;;;;;;5051382;28;20503;-29
2022/05/22 02:09:54;;;;;;;11.23;7.30;;;;;;;;;;5050565;28;20431;-30
2022/05/22 02:12:20;;;;;;;10.75;7.40;;;;;;;;;;5051245;28;20040;-29
2022/05/22 02:14:46;;;;;;;14.32;7.35;;;;;;;;;;5050791;28;20076;-29
2022/05/22 02:17:12;;;;;;;12.40;6.80;;;;;;;;;;5051399;28;20045;-28
2022/05/22 02:19:38;;;;;;;11.63;7.80;;;;;;;;;;5033678;28;20045;-29
2022/05/22 02:22:04;;;;;;;9.70;6.95;;;;;;;;;;5050681;28;20475;-29
2022/05/22 02:24:31;;;;;;;9.63;6.93;;;;;;;;;;5051329;28;20041;-30
2022/05/22 02:26:57;;;;;;;10.90;7.82;;;;;;;;;;5050249;28;20041;-31
2022/05/22 02:29:24;;;;;;;10.23;7.50;;;;;;;;;;5050009;28;20045;-28
2022/05/22 02:31:50;;;;;;;8.75;7.47;;;;;;;;;;5051312;28;20487;-32
2022/05/22 02:34:16;;;;;;;10.48;7.80;;;;;;;;;;5038355;28;20037;-29
2022/05/22 02:36:42;;;;;;;11.65;7.85;;;;;;;;;;5031581;28;20046;-28
2022/05/22 02:39:08;;;;;;;8.50;7.15;;;;;;;;;;5041177;28;20501;-32
2022/05/22 02:41:34;;;;;;;11.45;7.75;;;;;;;;;;5049811;28;20033;-30
2022/05/22 02:44:00;;;;;;;14.05;9.18;;;;;;;;;;5052913;28;20091;-33
2022/05/22 02:46:27;;;;;;;10.88;8.90;;;;;;;;;;5042253;28;20044;-31
2022/05/22 02:48:53;;;;;;;11.73;8.15;;;;;;;;;;5044457;28;20045;-34
2022/05/22 02:51:20;;;;;;;10.43;8.27;;;;;;;;;;5036328;28;20526;-32
2022/05/22 02:53:46;;;;;;;10.75;8.00;;;;;;;;;;5047248;28;20453;-31
2022/05/22 02:56:14;;;;;;;9.20;6.10;;;;;;;;;;5051100;28;20044;-33
2022/05/22 02:58:40;;;;;;;12.90;7.65;;;;;;;;;;5042202;28;20047;-31
2022/05/22 03:01:06;;;;;;;9.27;7.05;;;;;;;;;;5048066;28;20054;-33
2022/05/22 03:03:33;;;;;;;10.57;7.13;;;;;;;;;;5052106;28;20087;-31
2022/05/22 03:08:45;;;;;;;10.77;6.22;;;;;;;;;;5045902;28;20045;-32
2022/05/22 03:11:11;;;;;;;8.10;6.35;;;;;;;;;;5051976;28;20036;-31
2022/05/22 03:13:37;;;;;;;11.63;7.35;;;;;;;;;;5044130;28;20069;-31
2022/05/22 03:16:03;;;;;;;8.40;7.05;;;;;;;;;;5046472;28;20037;-31
2022/05/22 03:18:30;;;;;;;6.68;6.07;;;;;;;;;;5053140;28;20068;-33
2022/05/22 03:20:56;;;;;;;11.23;7.00;;;;;;;;;;5045649;28;20037;-31
2022/05/22 03:23:23;;;;;;;10.43;7.13;;;;;;;;;;5047573;28;20055;-31
2022/05/22 03:25:49;;;;;;;10.88;7.82;;;;;;;;;;5050291;28;20410;-32
2022/05/22 03:28:16;;;;;;;7.75;6.28;;;;;;;;;;5053702;28;20069;-31
2022/05/22 03:30:42;;;;;;;8.52;6.65;;;;;;;;;;5053264;28;20513;-36
2022/05/22 03:33:08;;;;;;;9.27;7.05;;;;;;;;;;5052595;28;20490;-31
2022/05/22 03:35:34;;;;;;;9.30;6.80;;;;;;;;;;5038789;28;20029;-30
2022/05/22 03:38:02;;;;;;;8.98;7.07;;;;;;;;;;5027863;28;20472;-31
2022/05/22 03:40:28;;;;;;;9.30;7.25;;;;;;;;;;5048186;28;20044;-31
2022/05/22 03:42:54;;;;;;;11.65;8.32;;;;;;;;;;5046695;28;20411;-34
2022/05/22 03:45:20;;;;;;;12.65;8.75;;;;;;;;;;5053095;28;20041;-32
2022/05/22 03:47:46;;;;;;;10.18;8.60;;;;;;;;;;5046876;28;20037;-32
2022/05/22 03:50:13;;;;;;;10.32;9.27;;;;;;;;;;5052532;28;20445;-31
2022/05/22 03:52:42;;;;;;;11.45;8.75;;;;;;;;;;5049401;28;20525;-33
2022/05/22 03:55:10;;;;;;;12.30;8.63;;;;;;;;;;5051987;28;20041;-33
2022/05/22 03:57:36;;;;;;;10.52;8.32;;;;;;;;;;5032144;28;20045;-31
2022/05/22 04:00:07;;;;;;;10.23;8.57;;;;;;;;;;5044818;28;20109;-32
2022/05/22 04:02:34;;;;;;;11.60;7.65;;;;;;;;;;5047001;28;20072;-31
2022/05/22 04:05:01;;;;;;;8.93;8.00;;;;;;;;;;5048504;28;20127;-33
2022/05/22 04:07:27;;;;;;;10.55;7.95;;;;;;;;;;5051942;28;20044;-31
2022/05/22 04:09:53;;;;;;;10.75;7.57;;;;;;;;;;5042752;28;20038;-30
2022/05/22 04:12:19;;;;;;;11.48;8.57;;;;;;;;;;5042526;28;20033;-31
2022/05/22 04:14:45;;;;;;;8.93;6.97;;;;;;;;;;5041653;28;20029;-31
2022/05/22 04:17:11;;;;;;;8.27;7.57;;;;;;;;;;5047911;28;20049;-32
2022/05/22 04:19:38;;;;;;;8.57;7.70;;;;;;;;;;5040396;28;20038;-32
2022/05/22 04:22:05;;;;;;;8.88;7.28;;;;;;;;;;5039040;28;20095;-29
2022/05/22 04:27:16;;;;;;;7.55;6.55;;;;;;;;;;5048256;28;20037;-31
2022/05/22 04:29:42;;;;;;;7.00;6.40;;;;;;;;;;5045524;28;20446;-31
2022/05/22 04:32:09;;;;;;;10.02;7.05;;;;;;;;;;5038865;28;20122;-32
2022/05/22 04:34:36;;;;;;;7.07;6.50;;;;;;;;;;5043454;28;20162;-30
2022/05/22 04:37:02;;;;;;;7.88;6.90;;;;;;;;;;5052181;28;20205;-30
2022/05/22 04:39:28;;;;;;;8.10;7.30;;;;;;;;;;5045313;28;20499;-30
2022/05/22 04:41:54;;;;;;;7.70;6.93;;;;;;;;;;5043254;28;20489;-31
2022/05/22 04:44:20;;;;;;;9.00;6.70;;;;;;;;;;5042198;28;20399;-29
2022/05/22 04:46:46;;;;;;;7.82;6.85;;;;;;;;;;5040173;28;20119;-30
2022/05/22 04:49:12;;;;;;;7.70;6.97;;;;;;;;;;5051218;28;20063;-31
2022/05/22 04:51:38;;;;;;;7.63;6.93;;;;;;;;;;5046068;28;20475;-32
2022/05/22 04:54:05;;;;;;;7.65;7.05;;;;;;;;;;5043283;28;20518;-31
2022/05/22 04:56:31;;;;;;;9.48;8.13;;;;;;;;;;5044702;28;20040;-30
2022/05/22 04:58:57;;;;;;;8.63;7.68;;;;;;;;;;5045558;28;20041;-29
2022/05/22 05:01:23;;;;;;;12.18;9.48;;;;;;;;;;5050315;28;20041;-31
2022/05/22 05:03:49;;;;;;;11.30;9.50;;;;;;;;;;5047689;28;20076;-30
2022/05/22 05:06:16;;;;;;;10.70;9.23;;;;;;;;;;5044443;28;20102;-31
2022/05/22 05:08:42;;;;;;;11.68;8.60;;;;;;;;;;5039156;28;20141;-30
2022/05/22 05:11:10;;;;;;;11.23;8.77;;;;;;;;;;5034848;28;20038;-31
2022/05/22 05:13:37;;;;;;;13.60;9.70;;;;;;;;;;5046633;28;20114;-32
2022/05/22 05:16:08;;;;;;;13.73;9.32;;;;;;;;;;5048941;28;20546;-30
2022/05/22 05:18:35;;;;;;;12.15;9.40;;;;;;;;;;5036861;28;20038;-32
2022/05/22 05:21:03;;;;;;;16.67;10.40;;;;;;;;;;5039772;28;20068;-31
2022/05/22 05:23:29;;;;;;;10.65;9.07;;;;;;;;;;5051540;28;20052;-30
2022/05/22 05:25:55;;;;;;;11.82;10.02;;;;;;;;;;5043317;28;20088;-30
2022/05/22 05:28:21;;;;;;;12.32;9.48;;;;;;;;;;5050947;28;20041;-30
2022/05/22 05:30:47;;;;;;;10.70;9.07;;;;;;;;;;5046523;28;20380;-33
2022/05/22 05:33:14;;;;;;;13.00;8.98;;;;;;;;;;5041761;28;20084;-32
2022/05/22 05:35:40;;;;;;;13.50;9.57;;;;;;;;;;5044730;28;20120;-29
2022/05/22 05:38:07;;;;;;;11.02;8.63;;;;;;;;;;5044101;28;20044;-31
2022/05/22 05:40:33;;;;;;;11.10;8.38;;;;;;;;;;5050889;28;20526;-31
2022/05/22 05:42:59;;;;;;;13.95;8.48;;;;;;;;;;5043462;28;20115;-30
2022/05/22 05:45:25;;;;;;;13.48;9.05;;;;;;;;;;5014182;28;20056;-33
2022/05/22 05:47:51;;;;;;;12.20;8.52;;;;;;;;;;5045660;28;20498;-31
2022/05/22 05:50:21;;;;;;;14.63;10.15;;;;;;;;;;5033947;28;20119;-31
2022/05/22 05:52:49;;;;;;;16.25;9.00;;;;;;;;;;5041392;28;20045;-30
2022/05/22 05:55:15;;;;;;;19.13;10.43;;;;;;;;;;5045856;28;20041;-31
2022/05/22 05:57:42;;;;;;;10.50;9.40;;;;;;;;;;5021381;28;20049;-32
2022/05/22 06:00:09;;;;;;;16.23;9.48;;;;;;;;;;5042040;28;20045;-32
2022/05/22 06:02:35;;;;;;;11.02;8.95;;;;;;;;;;5033319;28;20084;-31
2022/05/22 06:05:01;;;;;;;16.55;9.07;;;;;;;;;;5035605;28;20055;-31
2022/05/22 06:07:27;;;;;;;12.73;7.93;;;;;;;;;;5042040;28;20141;-35
2022/05/22 06:09:53;;;;;;;13.07;7.88;;;;;;;;;;5047968;28;20537;-30
2022/05/22 06:12:20;;;;;;;17.17;8.38;;;;;;;;;;5025114;28;20391;-30
2022/05/22 06:14:46;;;;;;;14.88;8.77;;;;;;;;;;5052593;28;20041;-31
2022/05/22 06:17:13;;;;;;;12.30;7.47;;;;;;;;;;5048501;28;20452;-30
2022/05/22 06:19:54;;;;;;;12.23;7.43;;;;;;;;;;5051156;28;20455;-31
2022/05/22 06:22:20;;;;;;;12.18;6.38;;;;;;;;;;5030150;28;20059;-30
2022/05/22 06:24:46;;;;;;;13.63;7.03;;;;;;;;;;5041057;28;20466;-31
2022/05/22 06:27:13;;;;;;;12.60;6.88;;;;;;;;;;5045490;28;20349;-30
2022/05/22 06:29:40;;;;;;;12.25;7.18;;;;;;;;;;5046934;28;20083;-30
2022/05/22 06:32:06;;;;;;;12.98;6.82;;;;;;;;;;5042740;28;20518;-29
2022/05/22 06:34:34;;;;;;;11.43;7.05;;;;;;;;;;5036789;28;20064;-31
2022/05/22 06:37:03;;;;;;;11.38;6.38;;;;;;;;;;5048348;28;20495;-31
2022/05/22 06:42:16;;;;;;;12.85;6.43;;;;;;;;;;5039847;28;20095;-30
2022/05/22 06:44:42;;;;;;;12.23;6.80;;;;;;;;;;5037022;28;20049;-31
2022/05/22 06:47:08;;;;;;;12.00;6.00;;;;;;;;;;5041652;28;20037;-31
2022/05/22 06:49:34;;;;;;;11.38;6.53;;;;;;;;;;5032877;28;20095;-32
2022/05/22 06:52:00;;;;;;;13.98;6.82;;;;;;;;;;5039413;28;20533;-31
2022/05/22 06:54:30;;;;;;;10.23;5.43;;;;;;;;;;5041764;28;20049;-31
2022/05/22 06:56:56;;;;;;;11.32;5.05;;;;;;;;;;5048841;28;20040;-31
2022/05/22 06:59:23;;;;;;;12.25;6.50;;;;;;;;;;5044174;28;20399;-32
2022/05/22 07:01:49;;;;;;;9.88;6.78;;;;;;;;;;5043736;28;20063;-31
2022/05/22 07:04:15;;;;;;;9.00;6.15;;;;;;;;;;5051562;28;20045;-32
2022/05/22 07:06:41;;;;;;;13.57;5.25;;;;;;;;;;5052102;28;20048;-30
2022/05/22 07:09:07;;;;;;;10.70;6.13;;;;;;;;;;5047681;28;20617;-30
2022/05/22 07:11:39;;;;;;;11.70;5.70;;;;;;;;;;5049243;28;20060;-32
2022/05/22 07:14:09;;;;;;;10.27;4.88;;;;;;;;;;5041916;28;20041;-31
2022/05/22 07:16:36;;;;;;;10.32;4.35;;;;;;;;;;5047502;28;20037;-30
2022/05/22 07:19:02;;;;;;;9.70;5.28;;;;;;;;;;5046207;28;20513;-31
2022/05/22 07:21:28;;;;;;;11.52;5.28;;;;;;;;;;5037203;28;20037;-30
2022/05/22 07:23:55;;;;;;;9.93;5.32;;;;;;;;;;5043602;28;20056;-30
2022/05/22 07:26:21;;;;;;;10.85;5.90;;;;;;;;;;5038679;28;20118;-30
2022/05/22 07:28:48;;;;;;;11.15;5.70;;;;;;;;;;5044340;28;20038;-32
2022/05/22 07:31:15;;;;;;;11.32;5.65;;;;;;;;;;5045740;28;20033;-30
2022/05/22 07:33:41;;;;;;;10.50;4.88;;;;;;;;;;5042857;28;20053;-31
2022/05/22 07:36:07;;;;;;;15.10;5.50;;;;;;;;;;5043938;28;20123;-32
2022/05/22 07:38:33;;;;;;;10.60;6.28;;;;;;;;;;5047114;28;20506;-31
2022/05/22 07:40:59;;;;;;;10.32;5.63;;;;;;;;;;5051051;28;20436;-33
2022/05/22 07:43:25;;;;;;;9.15;5.63;;;;;;;;;;5045373;28;20176;-32
2022/05/22 07:45:52;;;;;;;8.68;5.15;;;;;;;;;;5050851;28;20096;-31
2022/05/22 07:48:18;;;;;;;10.20;4.88;;;;;;;;;;5039931;28;20029;-32
2022/05/22 07:50:44;;;;;;;9.27;4.57;;;;;;;;;;5046580;28;20040;-33
2022/05/22 07:53:10;;;;;;;9.00;4.43;;;;;;;;;;5050799;28;20457;-35
2022/05/22 07:55:36;;;;;;;9.18;4.43;;;;;;;;;;5046599;28;20498;-33
2022/05/22 07:58:02;;;;;;;8.95;3.97;;;;;;;;;;5043359;28;20037;-32
2022/05/22 08:00:28;;;;;;;7.85;4.13;;;;;;;;;;5037138;28;20033;-31
2022/05/22 08:02:54;;;;;;;7.93;3.70;;;;;;;;;;5033635;28;20114;-32
2022/05/22 08:05:21;;;;;;;6.63;2.92;;;;;;;;;;5047173;28;20483;-33
2022/05/22 08:07:47;;;;;;;7.35;2.80;;;;;;;;;;5048933;28;20049;-33
2022/05/22 08:10:14;;;;;;;7.50;3.13;;;;;;;;;;5044810;28;20051;-32
2022/05/22 08:12:42;;;;;;;11.75;3.63;;;;;;;;;;5049428;28;20040;-32
2022/05/22 08:15:08;;;;;;;7.65;3.70;;;;;;;;;;5050973;28;20039;-35
2022/05/22 08:17:38;;;;;;;8.43;3.70;;;;;;;;;;5041689;28;20552;-32
2022/05/22 08:20:07;;;;;;;6.72;3.30;;;;;;;;;;5046834;28;20037;-32
2022/05/22 08:22:33;;;;;;;8.23;3.35;;;;;;;;;;5040876;28;20040;-32
2022/05/22 08:25:03;;;;;;;6.15;3.20;;;;;;;;;;5047148;28;20047;-33
2022/05/22 08:27:30;;;;;;;8.32;3.30;;;;;;;;;;5050595;28;20372;-32
2022/05/22 08:29:57;;;;;;;6.00;3.35;;;;;;;;;;5038794;28;20049;-32
2022/05/22 08:32:23;;;;;;;6.47;3.50;;;;;;;;;;5045856;28;20037;-32
2022/05/22 08:34:51;;;;;;;7.35;3.53;;;;;;;;;;5037764;28;20041;-32
2022/05/22 08:37:17;;;;;;;6.13;2.90;;;;;;;;;;5042134;28;20037;-33
2022/05/22 08:39:43;;;;;;;7.13;3.58;;;;;;;;;;5049468;28;20433;-32
2022/05/22 08:42:12;;;;;;;9.48;3.30;;;;;;;;;;5051363;28;20033;-34
2022/05/22 08:44:38;;;;;;;8.95;3.50;;;;;;;;;;5045357;28;20120;-30
2022/05/22 08:47:27;;;;;;;6.65;3.17;;;;;;;;;;5044340;28;20045;-33
2022/05/22 08:50:02;;;;;;;10.02;3.53;;;;;;;;;;5040822;28;20529;-33
2022/05/22 08:52:54;;;;;;;8.07;3.72;;;;;;;;;;5039660;28;20037;-36
2022/05/22 08:55:23;;;;;;;8.40;3.35;;;;;;;;;;5004114;28;20364;-33
2022/05/22 09:00:40;;;;;;;8.98;3.38;;;;;;;;;;5043907;28;20041;-33
2022/05/22 09:03:07;;;;;;;6.82;3.45;;;;;;;;;;5046418;28;20041;-33
2022/05/22 09:05:35;;;;;;;7.43;2.40;;;;;;;;;;5043739;28;20075;-33
2022/05/22 09:08:05;;;;;;;6.35;2.67;;;;;;;;;;5045257;28;20093;-34
2022/05/22 09:10:55;;;;;;;9.85;3.20;;;;;;;;;;5048939;28;20049;-33
2022/05/22 09:13:40;;;;;;;5.13;2.72;;;;;;;;;;5020772;28;20033;-33
2022/05/22 09:16:09;;;;;;;8.13;3.00;;;;;;;;;;5050536;28;20098;-33
2022/05/22 09:18:37;;;;;;;5.78;2.72;;;;;;;;;;5045202;28;20120;-31
2022/05/22 09:21:09;;;;;;;5.15;2.75;;;;;;;;;;5046232;28;20511;-32
2022/05/22 09:23:35;;;;;;;8.20;2.58;;;;;;;;;;5048375;28;20041;-33
2022/05/22 09:26:13;;;;;;;5.72;2.60;;;;;;;;;;5042168;28;20091;-33
2022/05/22 09:28:46;;;;;;;6.32;2.55;;;;;;;;;;5008457;28;20087;-33
2022/05/22 09:31:30;;;;;;;7.88;2.50;;;;;;;;;;5046841;28;20089;-30
2022/05/22 09:34:19;;;;;;;4.53;2.47;;;;;;;;;;5050316;28;20441;-33
2022/05/22 09:36:51;;;;;;;5.25;2.70;;;;;;;;;;5037293;28;20049;-33
2022/05/22 09:39:47;;;;;;;8.00;2.63;;;;;;;;;;5043347;28;20040;-34
2022/05/22 09:42:28;;;;;;;5.47;2.53;;;;;;;;;;4972576;28;20055;-34
2022/05/22 09:45:00;;;;;;;7.25;2.60;;;;;;;;;;5041950;28;20120;-36
2022/05/22 09:47:45;;;;;;;7.15;2.60;;;;;;;;;;5043689;28;20551;-34
2022/05/22 09:50:28;;;;;;;6.28;2.33;;;;;;;;;;5043013;28;20068;-34
2022/05/22 09:52:57;;;;;;;6.82;2.60;;;;;;;;;;5042922;28;20030;-35
2022/05/22 09:55:44;;;;;;;4.95;2.60;;;;;;;;;;5040004;28;20408;-33
2022/05/22 09:58:28;;;;;;;8.60;2.38;;;;;;;;;;5038216;28;20477;-34
2022/05/22 10:00:58;;;;;;;7.88;2.60;;;;;;;;;;5042869;28;20045;-34
2022/05/22 10:03:29;;;;;;;5.13;2.15;;;;;;;;;;5020981;28;20037;-34
2022/05/22 10:06:16;;;;;;;5.40;2.05;;;;;;;;;;5043268;28;20103;-32
2022/05/22 10:09:01;;;;;;;5.55;1.88;;;;;;;;;;5049512;28;20051;-31
2022/05/22 10:11:30;;;;;;;5.20;1.98;;;;;;;;;;5047291;28;20041;-30
2022/05/22 10:13:56;;;;;;;7.18;2.40;;;;;;;;;;5048713;28;20045;-31
2022/05/22 10:16:41;;;;;;;5.25;1.83;;;;;;;;;;5047042;28;20403;-33
2022/05/22 10:19:39;;;;;;;5.53;2.10;;;;;;;;;;5031340;28;20112;-30
2022/05/22 10:22:23;;;;;;;6.57;2.17;;;;;;;;;;5001850;28;20059;-35
2022/05/22 10:24:49;;;;;;;5.47;2.10;;;;;;;;;;5042141;28;20045;-33
2022/05/22 10:27:22;;;;;;;7.25;2.53;;;;;;;;;;5041280;28;20033;-35
2022/05/22 10:29:48;;;;;;;;;;;;;;;;;;5041850;28;20041;-33
2022/05/22 10:32:19;;;;;;;6.55;2.08;;;;;;;;;;5047765;28;19924;-32
2022/05/22 10:34:48;;;;;;;7.10;2.08;;;;;;;;;;5023898;28;20120;-35
2022/05/22 10:37:21;;;;;;;6.43;2.15;;;;;;;;;;5033513;28;20436;-31
2022/05/22 10:39:47;;;;;;;4.88;2.00;;;;;;;;;;5042142;28;20369;-34
2022/05/22 10:45:13;;;;;;;5.25;1.90;;;;;;;;;;5030580;28;20056;-30
2022/05/22 10:47:39;;;;;;;8.38;1.80;;;;;;;;;;5043798;28;20045;-30
2022/05/22 10:50:17;;;;;;;5.10;2.05;;;;;;;;;;5038769;28;20042;-30
2022/05/22 10:52:44;;;;;;;6.72;1.88;;;;;;;;;;5050132;28;20525;-30
2022/05/22 10:55:28;;;;;;;2.25;1.45;;;;;;;;;;5027908;28;20319;-31
2022/05/22 10:57:56;;;;;;;3.67;1.92;;;;;;;;;;5046696;28;20080;-31
2022/05/22 11:00:24;;;;;;;5.20;1.67;;;;;;;;;;5052776;28;20044;-32
2022/05/22 11:02:50;;;;;;;5.47;1.65;;;;;;;;;;5054342;28;20103;-31
2022/05/22 11:05:22;;;;;;;4.60;1.80;;;;;;;;;;5054583;28;20095;-31
2022/05/22 11:07:51;;;;;;;5.18;1.35;;;;;;;;;;5053230;28;20053;-33
2022/05/22 11:10:23;;;;;;;4.80;1.95;;;;;;;;;;5054540;28;20467;-32
2022/05/22 11:13:00;;;;;;;3.22;1.60;;;;;;;;;;5053561;28;20055;-31
2022/05/22 11:15:27;;;;;;;5.35;1.77;;;;;;;;;;5053947;28;20045;-30
2022/05/22 11:18:04;;;;;;;7.60;2.10;;;;;;;;;;5053863;28;20071;-31
2022/05/22 11:20:30;;;;;;;2.92;1.70;;;;;;;;;;5053336;28;20044;-31
2022/05/22 11:23:09;;;;;;;6.45;1.90;;;;;;;;;;5053831;28;20580;-30
2022/05/22 11:25:47;;;;;;;4.90;1.70;;;;;;;;;;5053526;28;20210;-31
2022/05/22 11:28:32;;;;;;;4.90;2.00;;;;;;;;;;5045376;28;20037;-34
2022/05/22 11:31:08;;;;;;;4.97;1.80;;;;;;;;;;5033116;28;20121;-31
2022/05/22 11:33:52;;;;;;;4.88;1.90;;;;;;;;;;5034122;28;20124;-31
2022/05/22 11:36:18;;;;;;;3.17;1.70;;;;;;;;;;5033116;28;20037;-30
2022/05/22 11:39:03;;;;;;;5.90;1.60;;;;;;;;;;5033964;28;20103;-32
2022/05/22 11:41:36;;;;;;;6.18;1.98;;;;;;;;;;5033801;28;20042;-31
2022/05/22 11:44:14;;;;;;;4.20;2.15;;;;;;;;;;5033175;28;20132;-31
2022/05/22 11:46:50;;;;;;;5.03;1.73;;;;;;;;;;5032777;28;20104;-31
2022/05/22 11:49:17;;;;;;;4.13;1.60;;;;;;;;;;5033810;28;20161;-33
2022/05/22 11:51:46;;;;;;;4.22;1.95;;;;;;;;;;5033779;28;20127;-32
2022/05/22 11:54:21;;;;;;;3.55;1.60;;;;;;;;;;5033294;28;20519;-30
2022/05/22 11:56:57;;;;;;;3.65;1.58;;;;;;;;;;5033997;28;20373;-31
2022/05/22 11:59:33;;;;;;;4.00;1.42;;;;;;;;;;5032787;28;20045;-32
2022/05/22 12:02:17;;;;;;;3.20;1.50;;;;;;;;;;5015721;28;20487;-31
2022/05/22 12:04:49;;;;;;;4.32;1.60;;;;;;;;;;5032694;28;20037;-30
2022/05/22 12:07:29;;;;;;;3.67;1.30;;;;;;;;;;5041692;28;20052;-31
2022/05/22 12:10:03;;;;;;;3.55;1.58;;;;;;;;;;5051848;28;20507;-31
2022/05/22 12:12:42;;;;;;;3.53;1.52;;;;;;;;;;5052177;28;20037;-30
2022/05/22 12:15:23;;;;;;;6.53;1.60;;;;;;;;;;5052544;28;20048;-31
2022/05/22 12:18:02;;;;;;;3.78;1.52;;;;;;;;;;5052557;28;20041;-30
2022/05/22 12:20:31;;;;;;;4.28;1.90;;;;;;;;;;5052565;28;20084;-31
2022/05/22 12:23:15;;;;;;;4.53;1.95;;;;;;;;;;5051846;28;20055;-31
2022/05/22 12:25:51;;;;;;;3.03;1.80;;;;;;;;;;5052050;28;20174;-31
2022/05/22 12:28:18;;;;;;;3.00;1.38;;;;;;;;;;5050953;28;20043;-30
2022/05/22 12:30:44;;;;;;;4.38;1.45;;;;;;;;;;5051873;28;20402;-31
2022/05/22 12:33:12;;;;;;;3.55;1.50;;;;;;;;;;5051192;28;20629;-31
2022/05/22 12:35:40;;;;;;;3.58;1.33;;;;;;;;;;5052149;28;20033;-31
2022/05/22 12:38:08;;;;;;;7.20;1.80;;;;;;;;;;5051741;28;20041;-31
2022/05/22 12:40:40;;;;;;;4.72;1.60;;;;;;;;;;5050865;28;20037;-31
2022/05/22 12:43:07;;;;;;;3.20;1.57;;;;;;;;;;5052041;28;20509;-31
2022/05/22 12:45:34;;;;;;;3.63;1.55;;;;;;;;;;5051119;28;20129;-31
2022/05/22 12:48:14;;;;;;;4.95;1.33;;;;;;;;;;5052052;28;20072;-31
2022/05/22 12:50:43;;;;;;;3.97;1.33;;;;;;;;;;5051884;28;20037;-31
2022/05/22 12:53:17;;;;;;;4.63;1.38;;;;;;;;;;5051681;28;20044;-30
2022/05/22 12:55:43;;;;;;;3.00;1.40;;;;;;;;;;5050933;28;20051;-31
2022/05/22 12:58:28;;;;;;;4.45;1.83;;;;;;;;;;5051475;28;20081;-31
2022/05/22 13:00:56;;;;;;;5.25;1.50;;;;;;;;;;5051537;28;20077;-31
2022/05/22 13:03:29;;;;;;;5.82;2.03;;;;;;;;;;5050666;28;20037;-30
2022/05/22 13:05:57;;;;;;;5.43;1.48;;;;;;;;;;5051477;28;20487;-30
2022/05/22 13:08:38;;;;;;;3.58;1.50;;;;;;;;;;5051273;28;20095;-31
2022/05/22 13:11:07;;;;;;;4.18;1.73;;;;;;;;;;5051797;28;20072;-31
2022/05/22 13:13:36;;;;;;;4.03;1.58;;;;;;;;;;5051906;28;20041;-31
2022/05/22 13:16:06;;;;;;;3.08;1.30;;;;;;;;;;5051211;28;20076;-32
2022/05/22 13:18:33;;;;;;;3.20;1.25;;;;;;;;;;5051050;28;20090;-31
2022/05/22 13:21:03;;;;;;;4.10;1.90;;;;;;;;;;5032830;28;20051;-33
2022/05/22 13:23:33;;;;;;;3.33;1.10;;;;;;;;;;5032776;28;20048;-31
2022/05/22 13:26:00;;;;;;;4.43;1.40;;;;;;;;;;5049855;28;20045;-31
2022/05/22 13:28:29;;;;;;;3.40;1.30;;;;;;;;;;5051054;28;20120;-31
2022/05/22 13:30:58;;;;;;;2.67;1.40;;;;;;;;;;5050167;28;20072;-33
2022/05/22 13:33:24;;;;;;;3.63;1.55;;;;;;;;;;5051080;28;20036;-31
2022/05/22 13:36:05;;;;;;;4.65;1.73;;;;;;;;;;5051073;28;20414;-32
2022/05/22 13:38:33;;;;;;;5.72;1.77;;;;;;;;;;5049728;28;20072;-31
2022/05/22 13:41:18;;;;;;;2.92;1.52;;;;;;;;;;5030094;28;20051;-31
2022/05/22 13:44:13;;;;;;;3.67;1.52;;;;;;;;;;5048265;28;20047;-31
2022/05/22 13:46:44;;;;;;;4.80;1.95;;;;;;;;;;5050684;28;20507;-31
2022/05/22 13:49:21;;;;;;;3.55;1.30;;;;;;;;;;5034519;28;20191;-33
2022/05/22 13:54:38;;;;;;;3.40;1.63;;;;;;;;;;5032573;28;20507;-33
2022/05/22 13:57:09;;;;;;;6.13;1.75;;;;;;;;;;5036544;28;20123;-33
2022/05/22 13:59:37;;;;;;;4.57;1.40;;;;;;;;;;5030008;28;20052;-34
2022/05/22 14:02:05;;;;;;;4.40;1.80;;;;;;;;;;5034253;28;20073;-33
2022/05/22 14:04:31;;;;;;;4.30;2.05;;;;;;;;;;5030619;28;20087;-30
2022/05/22 14:06:58;;;;;;;4.70;1.75;;;;;;;;;;5030509;28;20041;-31
2022/05/22 14:09:29;;;;;;;4.65;1.63;;;;;;;;;;5030770;28;20124;-30
2022/05/22 14:11:56;;;;;;;5.45;2.00;;;;;;;;;;5030804;28;20057;-31
2022/05/22 14:14:27;;;;;;;3.92;1.65;;;;;;;;;;5012933;28;20046;-30
2022/05/22 14:16:59;;;;;;;6.20;1.70;;;;;;;;;;5041294;28;20052;-31
2022/05/22 14:19:27;;;;;;;5.90;1.65;;;;;;;;;;5050971;28;20052;-29
2022/05/22 14:21:53;;;;;;;3.00;1.50;;;;;;;;;;5050690;28;20462;-30
2022/05/22 14:27:17;;;;;;;5.00;1.70;;;;;;;;;;5032523;28;20092;-30
2022/05/22 14:29:43;;;;;;;2.67;1.60;;;;;;;;;;5050504;28;20073;-30
2022/05/22 14:32:15;;;;;;;4.70;1.65;;;;;;;;;;5030406;28;20037;-30
2022/05/22 14:34:43;;;;;;;4.07;1.52;;;;;;;;;;5052194;28;20041;-31
2022/05/22 14:37:09;;;;;;;4.00;1.50;;;;;;;;;;5045299;28;20046;-35
2022/05/22 14:39:35;;;;;;;2.75;1.55;;;;;;;;;;5036158;28;20128;-33
2022/05/22 14:42:08;;;;;;;4.57;1.55;;;;;;;;;;5044724;28;20118;-33
2022/05/22 14:44:34;;;;;;;;;;;;;;;;;;5040657;28;20132;-33
2022/05/22 14:47:01;;;;;;;5.18;1.35;;;;;;;;;;5037639;28;21532;-33
2022/05/22 14:49:29;;;;;;;2.85;1.40;;;;;;;;;;5046283;28;20030;-33
2022/05/22 14:51:57;;;;;;;3.83;1.30;;;;;;;;;;5039688;28;20047;-33
2022/05/22 14:54:35;;;;;;;2.75;1.38;;;;;;;;;;5042541;28;20207;-34
2022/05/22 14:57:05;;;;;;;7.72;1.80;;;;;;;;;;5043514;28;20449;-33
2022/05/22 14:59:54;;;;;;;3.53;1.48;;;;;;;;;;5045520;28;20403;-33
2022/05/22 15:02:27;;;;;;;3.67;1.42;;;;;;;;;;5045376;28;20036;-34
2022/05/22 15:04:53;;;;;;;3.42;1.48;;;;;;;;;;5050227;28;20502;-33
2022/05/22 15:07:24;;;;;;;3.00;1.38;;;;;;;;;;5045401;28;20470;-33
2022/05/22 15:10:00;;;;;;;3.03;1.52;;;;;;;;;;5041212;28;20041;-34
2022/05/22 15:12:32;;;;;;;3.78;1.50;;;;;;;;;;5044175;28;20045;-33
2022/05/22 15:14:58;;;;;;;5.28;1.58;;;;;;;;;;5039832;28;20514;-33
2022/05/22 15:17:28;;;;;;;2.92;1.65;;;;;;;;;;5050715;28;20428;-33